Greenview, South Carolina
Current Conditions -  °F | °C
As of 10:53 PM on Sunday 21 Dec 2014 (Local Time) from KCUB Reporting Station
Light Rain Light Rain  
Wind Chill: 48°   Ceiling: 1300
Heat Index: 48°   Visibility: 4mi
Dew Point: 45°   Wind: 3mph
Humidity: 89%   Direction: 60°ENE
Pressure: 30.16"   Gusts: NA
Location:  34.1179°N, 81.0612°W
Report Text: KCUB 220353Z AUTO 06003KT 4SM -RA BR FEW007 BKN013 OVC020 09/07 A3016 RMK AO2 RAB06 SLP213 P0006 T00890072
Loading
Personal Weather Stations






























Interactive Weather Map New forecast layout! Learn more

10-Day Weather Forecast

Advertisements
Track Severe Weather on mobile